»·PEaware :: N335AK KSAC-KBUR

N335AK :: KSAC-KBUR

FLIGHT INFORMATION

Flight Status: Arrived
Operator: Privately registered:
United States
More flights under this callsign
Pilot: Gabor H. (24209)
Aircraft: Unknown
(EPIC)
More flights by this aircraft type
Origin: KSAC Sacramento Executive
United States
Destination: KBUR Bob Hope-Burbank
United States
More flights between these airports :: More routes between these airports
Route: SAC PXN AVE FERN7
File this flight plan on PilotEdge
Remarks:
Altitude:
(Current/Filed)
27,000ft
Speed:
(Current/Filed)
325kts
Departed: 24-Nov-20 08:13 AM
Arrived: 24-Nov-20 09:14 AM
Distance/Time
Traveled:
300nm/1:00
Distance/Time
To Go:
Arrived

Flight Plot

Page will automatically refresh every two minutes.

Flight plan parsing failed; only flown route is shown


Map Options




Map Legend


Flown Route
Filed Route
Departure Airport
Arrival Airport
Navaid (VOR, NDB)
Fix

Horizontal Profiles

Position Reports

Time Latitude Longitude Heading Altitude Ground
Speed
24-Nov-20 08:00 38.514889 -121.499480 137 23ft 0kts
24-Nov-20 08:01 38.514889 -121.499480 137 23ft 0kts
24-Nov-20 08:02 38.514889 -121.499480 137 23ft 0kts
24-Nov-20 08:03 38.514889 -121.499480 137 23ft 0kts
24-Nov-20 08:04 38.514889 -121.499480 137 23ft 0kts
24-Nov-20 08:05 38.514889 -121.499480 137 23ft 0kts
24-Nov-20 08:06 38.514889 -121.499480 137 23ft 0kts
24-Nov-20 08:07 38.514889 -121.499480 137 23ft 0kts
24-Nov-20 08:08 38.514743 -121.498671 136 23ft 10kts
24-Nov-20 08:09 38.514383 -121.494818 30 24ft 14kts
24-Nov-20 08:10 38.518360 -121.491471 34 25ft 22kts
24-Nov-20 08:11 38.519192 -121.490445 91 25ft 0kts
24-Nov-20 08:12 38.515558 -121.492158 213 25ft 92kts
24-Nov-20 08:13 38.478945 -121.522052 213 1980ft 202kts
24-Nov-20 08:14 38.425107 -121.542477 162 2524ft 226kts
24-Nov-20 08:15 38.367670 -121.516754 159 5951ft 225kts
24-Nov-20 08:16 38.307785 -121.489389 159 9057ft 236kts
24-Nov-20 08:17 38.244270 -121.460419 158 11943ft 251kts
24-Nov-20 08:18 38.177106 -121.429823 159 14610ft 266kts
24-Nov-20 08:19 38.105524 -121.397298 160 17086ft 282kts
24-Nov-20 08:20 38.029755 -121.362934 161 19385ft 298kts
24-Nov-20 08:21 37.950111 -121.326884 161 21384ft 312kts
24-Nov-20 08:22 37.867148 -121.289438 161 23036ft 323kts
24-Nov-20 08:23 37.781295 -121.250792 161 24397ft 332kts
24-Nov-20 08:24 37.693635 -121.211409 162 25582ft 338kts
24-Nov-20 08:25 37.604718 -121.171588 162 26522ft 343kts
24-Nov-20 08:26 37.514353 -121.131208 162 27155ft 350kts
24-Nov-20 08:27 37.420405 -121.089345 162 27165ft 363kts
24-Nov-20 08:28 37.325248 -121.047048 161 27166ft 364kts
24-Nov-20 08:29 37.229549 -121.004631 161 27171ft 368kts
24-Nov-20 08:30 37.132618 -120.961775 161 27178ft 372kts
24-Nov-20 08:31 37.035099 -120.918776 161 27189ft 374kts
24-Nov-20 08:32 36.937032 -120.875655 161 27198ft 375kts
24-Nov-20 08:33 36.838885 -120.832616 161 27184ft 374kts
24-Nov-20 08:34 36.740731 -120.789693 161 27181ft 374kts
24-Nov-20 08:35 36.649692 -120.728648 147 27175ft 374kts
24-Nov-20 08:36 36.561034 -120.661413 147 27179ft 373kts
24-Nov-20 08:37 36.472577 -120.594504 147 27184ft 373kts
24-Nov-20 08:38 36.383848 -120.527570 147 27183ft 373kts
24-Nov-20 08:39 36.295398 -120.461036 147 27185ft 373kts
24-Nov-20 08:41 36.206599 -120.394400 147 27180ft 373kts
24-Nov-20 08:42 36.117864 -120.327999 147 27178ft 373kts
24-Nov-20 08:43 36.029228 -120.261854 147 27184ft 373kts
24-Nov-20 08:44 35.940428 -120.195758 147 27183ft 373kts
24-Nov-20 08:45 35.851706 -120.129895 147 27169ft 372kts
24-Nov-20 08:46 35.763136 -120.064319 147 27168ft 371kts
24-Nov-20 08:47 35.674473 -119.998845 147 27164ft 371kts
24-Nov-20 08:48 35.589055 -119.928376 142 27168ft 370kts
24-Nov-20 08:49 35.504904 -119.855618 142 27174ft 370kts
24-Nov-20 08:50 35.420892 -119.783164 142 27178ft 370kts
24-Nov-20 08:51 35.336788 -119.710819 142 27179ft 370kts
24-Nov-20 08:52 35.248695 -119.635248 142 25667ft 402kts
24-Nov-20 08:53 35.156037 -119.555985 143 23881ft 409kts
24-Nov-20 08:54 35.062757 -119.476403 143 22067ft 409kts
24-Nov-20 08:55 34.972049 -119.399255 144 20295ft 388kts
24-Nov-20 08:56 34.885698 -119.325985 145 18603ft 371kts
24-Nov-20 08:57 34.801948 -119.255110 145 16957ft 363kts
24-Nov-20 08:57 34.733275 -119.197134 145 15624ft 360kts
24-Nov-20 08:59 34.638588 -119.117389 145 13788ft 352kts
24-Nov-20 08:59 34.572643 -119.061979 146 12510ft 343kts
24-Nov-20 09:00 34.495263 -118.997135 145 11064ft 325kts
24-Nov-20 09:02 34.414710 -118.929748 144 9543ft 293kts
24-Nov-20 09:02 34.359807 -118.883906 145 8290ft 281kts
24-Nov-20 09:03 34.293423 -118.839051 150 6980ft 270kts
24-Nov-20 09:04 34.229086 -118.796162 150 5177ft 259kts
24-Nov-20 09:05 34.202373 -118.731238 90 4268ft 210kts
24-Nov-20 09:06 34.201240 -118.664666 89 3705ft 186kts
24-Nov-20 09:07 34.200619 -118.602191 89 3607ft 193kts
24-Nov-20 09:08 34.199916 -118.540634 89 3037ft 166kts
24-Nov-20 09:09 34.199350 -118.489421 89 2714ft 128kts
24-Nov-20 09:10 34.198929 -118.452539 90 2189ft 108kts
24-Nov-20 09:11 34.198487 -118.416080 87 1591ft 108kts
24-Nov-20 09:12 34.198042 -118.378846 90 994ft 110kts
24-Nov-20 09:13 34.198578 -118.360270 1 779ft 0kts
24-Nov-20 09:14 34.199704 -118.358984 350 779ft 8kts
24-Nov-20 09:15 34.200338 -118.358881 254 779ft 0kts

Navigation Log

Ident Type
Flight plan parsing failed, navigation log unavailable